sensor_id;sensor_type;location;lat;lon;timestamp;P1;durP1;ratioP1;P2;durP2;ratioP2
67564;SDS011;54393;53.556;49.216;2023-05-29T00:00:36;1.67;;;1.58;;
67564;SDS011;54393;53.556;49.216;2023-05-29T00:03:03;1.70;;;1.60;;
67564;SDS011;54393;53.556;49.216;2023-05-29T00:05:30;2.00;;;1.90;;
67564;SDS011;54393;53.556;49.216;2023-05-29T00:07:56;1.80;;;1.70;;
67564;SDS011;54393;53.556;49.216;2023-05-29T00:10:23;2.00;;;1.90;;
67564;SDS011;54393;53.556;49.216;2023-05-29T00:12:49;1.87;;;1.77;;
67564;SDS011;54393;53.556;49.216;2023-05-29T00:15:16;1.73;;;1.62;;
67564;SDS011;54393;53.556;49.216;2023-05-29T00:17:43;1.85;;;1.75;;
67564;SDS011;54393;53.556;49.216;2023-05-29T00:20:09;1.75;;;1.65;;
67564;SDS011;54393;53.556;49.216;2023-05-29T00:22:37;2.30;;;2.20;;
67564;SDS011;54393;53.556;49.216;2023-05-29T00:25:04;1.70;;;1.60;;
67564;SDS011;54393;53.556;49.216;2023-05-29T00:27:31;1.95;;;1.85;;
67564;SDS011;54393;53.556;49.216;2023-05-29T00:30:00;2.10;;;1.95;;
67564;SDS011;54393;53.556;49.216;2023-05-29T00:32:28;2.17;;;2.08;;
67564;SDS011;54393;53.556;49.216;2023-05-29T00:34:54;2.05;;;1.95;;
67564;SDS011;54393;53.556;49.216;2023-05-29T00:37:21;1.50;;;1.50;;
67564;SDS011;54393;53.556;49.216;2023-05-29T00:39:48;1.92;;;1.83;;
67564;SDS011;54393;53.556;49.216;2023-05-29T00:42:14;1.73;;;1.62;;
67564;SDS011;54393;53.556;49.216;2023-05-29T00:44:41;1.90;;;1.80;;
67564;SDS011;54393;53.556;49.216;2023-05-29T00:47:08;2.03;;;1.92;;
67564;SDS011;54393;53.556;49.216;2023-05-29T00:49:35;2.08;;;1.98;;
67564;SDS011;54393;53.556;49.216;2023-05-29T00:52:02;2.20;;;2.10;;
67564;SDS011;54393;53.556;49.216;2023-05-29T00:54:29;2.53;;;1.90;;
67564;SDS011;54393;53.556;49.216;2023-05-29T00:56:56;1.40;;;1.40;;
67564;SDS011;54393;53.556;49.216;2023-05-29T00:59:23;2.53;;;1.70;;
67564;SDS011;54393;53.556;49.216;2023-05-29T01:01:55;1.58;;;1.55;;
67564;SDS011;54393;53.556;49.216;2023-05-29T01:04:23;1.90;;;1.80;;
67564;SDS011;54393;53.556;49.216;2023-05-29T01:06:50;3.83;;;2.10;;
67564;SDS011;54393;53.556;49.216;2023-05-29T01:09:17;1.70;;;1.60;;
67564;SDS011;54393;53.556;49.216;2023-05-29T01:14:53;1.92;;;1.83;;
67564;SDS011;54393;53.556;49.216;2023-05-29T01:17:43;1.77;;;1.67;;
67564;SDS011;54393;53.556;49.216;2023-05-29T01:23:01;1.90;;;1.80;;
67564;SDS011;54393;53.556;49.216;2023-05-29T01:28:39;2.05;;;1.95;;
67564;SDS011;54393;53.556;49.216;2023-05-29T01:31:07;1.77;;;1.67;;
67564;SDS011;54393;53.556;49.216;2023-05-29T01:33:39;2.08;;;1.98;;
67564;SDS011;54393;53.556;49.216;2023-05-29T01:36:09;2.10;;;2.00;;
67564;SDS011;54393;53.556;49.216;2023-05-29T01:38:36;1.98;;;1.60;;
67564;SDS011;54393;53.556;49.216;2023-05-29T01:41:02;2.03;;;1.92;;
67564;SDS011;54393;53.556;49.216;2023-05-29T01:43:29;1.87;;;1.77;;
67564;SDS011;54393;53.556;49.216;2023-05-29T01:45:56;2.00;;;1.90;;
67564;SDS011;54393;53.556;49.216;2023-05-29T01:48:23;1.77;;;1.67;;
67564;SDS011;54393;53.556;49.216;2023-05-29T01:50:50;2.03;;;1.92;;
67564;SDS011;54393;53.556;49.216;2023-05-29T01:53:17;2.17;;;2.08;;
67564;SDS011;54393;53.556;49.216;2023-05-29T01:55:44;2.00;;;1.90;;
67564;SDS011;54393;53.556;49.216;2023-05-29T01:58:10;1.85;;;1.75;;
67564;SDS011;54393;53.556;49.216;2023-05-29T02:00:38;2.65;;;1.92;;
67564;SDS011;54393;53.556;49.216;2023-05-29T02:03:05;2.20;;;2.10;;
67564;SDS011;54393;53.556;49.216;2023-05-29T02:05:32;2.10;;;1.92;;
67564;SDS011;54393;53.556;49.216;2023-05-29T02:07:59;2.30;;;2.20;;
67564;SDS011;54393;53.556;49.216;2023-05-29T02:10:25;1.92;;;1.83;;
67564;SDS011;54393;53.556;49.216;2023-05-29T02:12:52;1.98;;;1.83;;
67564;SDS011;54393;53.556;49.216;2023-05-29T02:15:18;2.30;;;2.10;;
67564;SDS011;54393;53.556;49.216;2023-05-29T02:17:45;2.00;;;1.75;;
67564;SDS011;54393;53.556;49.216;2023-05-29T02:20:11;2.12;;;2.03;;
67564;SDS011;54393;53.556;49.216;2023-05-29T02:22:38;2.60;;;2.40;;
67564;SDS011;54393;53.556;49.216;2023-05-29T02:25:04;2.53;;;2.33;;
67564;SDS011;54393;53.556;49.216;2023-05-29T02:27:31;2.30;;;2.20;;
67564;SDS011;54393;53.556;49.216;2023-05-29T02:29:58;2.17;;;2.08;;
67564;SDS011;54393;53.556;49.216;2023-05-29T02:32:24;2.00;;;1.90;;
67564;SDS011;54393;53.556;49.216;2023-05-29T02:34:53;2.12;;;1.92;;
67564;SDS011;54393;53.556;49.216;2023-05-29T02:37:19;2.20;;;2.00;;
67564;SDS011;54393;53.556;49.216;2023-05-29T02:39:50;2.20;;;2.10;;
67564;SDS011;54393;53.556;49.216;2023-05-29T02:42:17;2.05;;;1.95;;
67564;SDS011;54393;53.556;49.216;2023-05-29T02:44:43;2.28;;;2.10;;
67564;SDS011;54393;53.556;49.216;2023-05-29T02:47:10;2.25;;;2.15;;
67564;SDS011;54393;53.556;49.216;2023-05-29T02:49:36;2.30;;;2.20;;
67564;SDS011;54393;53.556;49.216;2023-05-29T02:52:03;2.87;;;2.67;;
67564;SDS011;54393;53.556;49.216;2023-05-29T02:54:30;2.40;;;2.20;;
67564;SDS011;54393;53.556;49.216;2023-05-29T02:56:56;2.65;;;2.47;;
67564;SDS011;54393;53.556;49.216;2023-05-29T02:59:23;4.50;;;2.22;;
67564;SDS011;54393;53.556;49.216;2023-05-29T03:01:49;2.35;;;2.25;;
67564;SDS011;54393;53.556;49.216;2023-05-29T03:04:17;2.22;;;2.12;;
67564;SDS011;54393;53.556;49.216;2023-05-29T03:06:43;2.75;;;2.55;;
67564;SDS011;54393;53.556;49.216;2023-05-29T03:09:10;2.42;;;2.22;;
67564;SDS011;54393;53.556;49.216;2023-05-29T03:11:37;2.95;;;2.72;;
67564;SDS011;54393;53.556;49.216;2023-05-29T03:14:06;2.83;;;2.62;;
67564;SDS011;54393;53.556;49.216;2023-05-29T03:16:32;2.80;;;2.55;;
67564;SDS011;54393;53.556;49.216;2023-05-29T03:18:58;2.45;;;2.25;;
67564;SDS011;54393;53.556;49.216;2023-05-29T03:21:25;2.95;;;2.75;;
67564;SDS011;54393;53.556;49.216;2023-05-29T03:23:51;2.83;;;2.62;;
67564;SDS011;54393;53.556;49.216;2023-05-29T03:26:18;2.22;;;2.10;;
67564;SDS011;54393;53.556;49.216;2023-05-29T03:28:45;2.37;;;2.28;;
67564;SDS011;54393;53.556;49.216;2023-05-29T03:31:11;2.60;;;2.40;;
67564;SDS011;54393;53.556;49.216;2023-05-29T03:33:37;2.75;;;2.33;;
67564;SDS011;54393;53.556;49.216;2023-05-29T03:36:04;2.22;;;2.12;;
67564;SDS011;54393;53.556;49.216;2023-05-29T03:38:32;2.47;;;2.37;;
67564;SDS011;54393;53.556;49.216;2023-05-29T03:40:59;2.53;;;2.40;;
67564;SDS011;54393;53.556;49.216;2023-05-29T03:43:26;2.67;;;2.55;;
67564;SDS011;54393;53.556;49.216;2023-05-29T03:45:52;2.35;;;2.25;;
67564;SDS011;54393;53.556;49.216;2023-05-29T03:48:18;2.83;;;2.62;;
67564;SDS011;54393;53.556;49.216;2023-05-29T03:50:48;2.55;;;2.42;;
67564;SDS011;54393;53.556;49.216;2023-05-29T03:53:15;2.87;;;2.67;;
67564;SDS011;54393;53.556;49.216;2023-05-29T03:55:41;2.42;;;2.33;;
67564;SDS011;54393;53.556;49.216;2023-05-29T03:58:08;2.80;;;2.60;;
67564;SDS011;54393;53.556;49.216;2023-05-29T04:00:37;2.67;;;2.58;;
67564;SDS011;54393;53.556;49.216;2023-05-29T04:03:04;3.00;;;2.80;;
67564;SDS011;54393;53.556;49.216;2023-05-29T04:05:31;2.65;;;2.55;;
67564;SDS011;54393;53.556;49.216;2023-05-29T04:07:57;2.78;;;2.55;;
67564;SDS011;54393;53.556;49.216;2023-05-29T04:10:24;2.55;;;2.45;;
67564;SDS011;54393;53.556;49.216;2023-05-29T04:12:51;2.70;;;2.55;;
67564;SDS011;54393;53.556;49.216;2023-05-29T04:15:17;2.87;;;2.72;;
67564;SDS011;54393;53.556;49.216;2023-05-29T04:17:43;2.83;;;2.65;;
67564;SDS011;54393;53.556;49.216;2023-05-29T04:20:10;3.33;;;3.12;;
67564;SDS011;54393;53.556;49.216;2023-05-29T04:22:37;2.92;;;2.72;;
67564;SDS011;54393;53.556;49.216;2023-05-29T04:25:04;3.00;;;2.80;;
67564;SDS011;54393;53.556;49.216;2023-05-29T04:27:31;2.78;;;2.67;;
67564;SDS011;54393;53.556;49.216;2023-05-29T04:30:03;3.10;;;2.90;;
67564;SDS011;54393;53.556;49.216;2023-05-29T04:32:30;2.85;;;2.65;;
67564;SDS011;54393;53.556;49.216;2023-05-29T04:34:58;3.10;;;2.90;;
67564;SDS011;54393;53.556;49.216;2023-05-29T04:37:29;2.90;;;2.70;;
67564;SDS011;54393;53.556;49.216;2023-05-29T04:39:56;3.20;;;3.00;;
67564;SDS011;54393;53.556;49.216;2023-05-29T04:42:23;3.00;;;2.80;;
67564;SDS011;54393;53.556;49.216;2023-05-29T04:44:51;2.70;;;2.50;;
67564;SDS011;54393;53.556;49.216;2023-05-29T04:47:20;2.80;;;2.60;;
67564;SDS011;54393;53.556;49.216;2023-05-29T04:49:47;3.22;;;3.03;;
67564;SDS011;54393;53.556;49.216;2023-05-29T04:52:15;3.28;;;3.08;;
67564;SDS011;54393;53.556;49.216;2023-05-29T04:54:42;4.97;;;3.17;;
67564;SDS011;54393;53.556;49.216;2023-05-29T04:57:08;3.22;;;3.03;;
67564;SDS011;54393;53.556;49.216;2023-05-29T04:59:35;2.80;;;2.67;;
67564;SDS011;54393;53.556;49.216;2023-05-29T05:02:02;3.05;;;2.85;;
67564;SDS011;54393;53.556;49.216;2023-05-29T05:04:28;3.30;;;2.90;;
67564;SDS011;54393;53.556;49.216;2023-05-29T05:06:55;3.08;;;2.87;;
67564;SDS011;54393;53.556;49.216;2023-05-29T05:09:21;3.78;;;2.75;;
67564;SDS011;54393;53.556;49.216;2023-05-29T05:11:48;3.47;;;3.17;;
67564;SDS011;54393;53.556;49.216;2023-05-29T05:14:14;4.68;;;3.17;;
67564;SDS011;54393;53.556;49.216;2023-05-29T05:16:41;4.40;;;3.67;;
67564;SDS011;54393;53.556;49.216;2023-05-29T05:19:07;7.45;;;3.50;;
67564;SDS011;54393;53.556;49.216;2023-05-29T05:21:33;6.65;;;3.62;;
67564;SDS011;54393;53.556;49.216;2023-05-29T05:24:00;4.25;;;3.58;;
67564;SDS011;54393;53.556;49.216;2023-05-29T05:26:27;6.70;;;3.60;;
67564;SDS011;54393;53.556;49.216;2023-05-29T05:28:53;3.97;;;3.67;;
67564;SDS011;54393;53.556;49.216;2023-05-29T05:31:20;7.75;;;3.65;;
67564;SDS011;54393;53.556;49.216;2023-05-29T05:33:47;3.60;;;3.35;;
67564;SDS011;54393;53.556;49.216;2023-05-29T05:36:13;5.45;;;3.45;;
67564;SDS011;54393;53.556;49.216;2023-05-29T05:38:40;3.85;;;3.55;;
67564;SDS011;54393;53.556;49.216;2023-05-29T05:41:06;3.28;;;2.97;;
67564;SDS011;54393;53.556;49.216;2023-05-29T05:43:33;4.22;;;3.53;;
67564;SDS011;54393;53.556;49.216;2023-05-29T05:46:00;5.97;;;3.65;;
67564;SDS011;54393;53.556;49.216;2023-05-29T05:48:26;7.50;;;4.10;;
67564;SDS011;54393;53.556;49.216;2023-05-29T05:50:52;4.87;;;3.60;;
67564;SDS011;54393;53.556;49.216;2023-05-29T05:53:19;4.55;;;3.33;;
67564;SDS011;54393;53.556;49.216;2023-05-29T05:55:46;4.50;;;3.25;;
67564;SDS011;54393;53.556;49.216;2023-05-29T05:58:13;5.18;;;3.50;;
67564;SDS011;54393;53.556;49.216;2023-05-29T06:00:39;6.10;;;3.60;;
67564;SDS011;54393;53.556;49.216;2023-05-29T06:03:07;8.38;;;3.80;;
67564;SDS011;54393;53.556;49.216;2023-05-29T06:05:34;5.10;;;3.20;;
67564;SDS011;54393;53.556;49.216;2023-05-29T06:08:02;5.15;;;3.60;;
67564;SDS011;54393;53.556;49.216;2023-05-29T06:10:29;4.97;;;3.67;;
67564;SDS011;54393;53.556;49.216;2023-05-29T06:12:56;3.72;;;3.42;;
67564;SDS011;54393;53.556;49.216;2023-05-29T06:15:22;5.97;;;3.28;;
67564;SDS011;54393;53.556;49.216;2023-05-29T06:17:48;3.58;;;3.28;;
67564;SDS011;54393;53.556;49.216;2023-05-29T06:20:17;4.07;;;3.28;;
67564;SDS011;54393;53.556;49.216;2023-05-29T06:22:44;5.75;;;3.50;;
67564;SDS011;54393;53.556;49.216;2023-05-29T06:25:16;5.22;;;3.80;;
67564;SDS011;54393;53.556;49.216;2023-05-29T06:27:45;4.00;;;3.60;;
67564;SDS011;54393;53.556;49.216;2023-05-29T06:30:12;3.42;;;3.10;;
67564;SDS011;54393;53.556;49.216;2023-05-29T06:32:40;3.70;;;3.40;;
67564;SDS011;54393;53.556;49.216;2023-05-29T06:35:07;4.10;;;3.10;;
67564;SDS011;54393;53.556;49.216;2023-05-29T06:37:33;3.45;;;3.17;;
67564;SDS011;54393;53.556;49.216;2023-05-29T06:40:00;4.00;;;3.58;;
67564;SDS011;54393;53.556;49.216;2023-05-29T06:42:31;3.50;;;3.20;;
67564;SDS011;54393;53.556;49.216;2023-05-29T06:44:57;3.53;;;3.22;;
67564;SDS011;54393;53.556;49.216;2023-05-29T06:47:24;3.20;;;3.00;;
67564;SDS011;54393;53.556;49.216;2023-05-29T06:49:51;5.47;;;2.90;;
67564;SDS011;54393;53.556;49.216;2023-05-29T06:52:17;3.08;;;2.85;;
67564;SDS011;54393;53.556;49.216;2023-05-29T06:54:44;2.87;;;2.65;;
67564;SDS011;54393;53.556;49.216;2023-05-29T06:57:10;5.25;;;2.75;;
67564;SDS011;54393;53.556;49.216;2023-05-29T06:59:37;2.97;;;2.67;;
67564;SDS011;54393;53.556;49.216;2023-05-29T07:02:04;2.75;;;2.55;;
67564;SDS011;54393;53.556;49.216;2023-05-29T07:04:31;3.37;;;2.90;;
67564;SDS011;54393;53.556;49.216;2023-05-29T07:06:57;4.00;;;2.62;;
67564;SDS011;54393;53.556;49.216;2023-05-29T07:09:24;3.00;;;2.80;;
67564;SDS011;54393;53.556;49.216;2023-05-29T07:11:52;3.08;;;2.87;;
67564;SDS011;54393;53.556;49.216;2023-05-29T07:14:18;2.83;;;2.45;;
67564;SDS011;54393;53.556;49.216;2023-05-29T07:16:45;3.62;;;2.60;;
67564;SDS011;54393;53.556;49.216;2023-05-29T07:19:11;3.47;;;2.80;;
67564;SDS011;54393;53.556;49.216;2023-05-29T07:21:39;4.28;;;2.65;;
67564;SDS011;54393;53.556;49.216;2023-05-29T07:24:05;3.65;;;3.10;;
67564;SDS011;54393;53.556;49.216;2023-05-29T07:26:32;3.42;;;3.12;;
67564;SDS011;54393;53.556;49.216;2023-05-29T07:28:59;4.40;;;2.87;;
67564;SDS011;54393;53.556;49.216;2023-05-29T07:31:25;6.97;;;3.12;;
67564;SDS011;54393;53.556;49.216;2023-05-29T07:33:52;3.42;;;2.83;;
67564;SDS011;54393;53.556;49.216;2023-05-29T07:36:19;4.72;;;3.08;;
67564;SDS011;54393;53.556;49.216;2023-05-29T07:38:45;5.22;;;3.05;;
67564;SDS011;54393;53.556;49.216;2023-05-29T07:41:13;4.95;;;2.90;;
67564;SDS011;54393;53.556;49.216;2023-05-29T07:43:42;3.25;;;3.05;;
67564;SDS011;54393;53.556;49.216;2023-05-29T07:46:11;3.60;;;2.70;;
67564;SDS011;54393;53.556;49.216;2023-05-29T07:48:42;4.43;;;2.65;;
67564;SDS011;54393;53.556;49.216;2023-05-29T07:51:11;4.20;;;2.58;;
67564;SDS011;54393;53.556;49.216;2023-05-29T07:53:43;3.15;;;2.72;;
67564;SDS011;54393;53.556;49.216;2023-05-29T07:56:17;2.90;;;2.70;;
67564;SDS011;54393;53.556;49.216;2023-05-29T07:58:45;2.95;;;2.75;;
67564;SDS011;54393;53.556;49.216;2023-05-29T08:01:13;5.18;;;2.55;;
67564;SDS011;54393;53.556;49.216;2023-05-29T08:03:45;4.30;;;2.90;;
67564;SDS011;54393;53.556;49.216;2023-05-29T08:06:23;3.22;;;2.85;;
67564;SDS011;54393;53.556;49.216;2023-05-29T08:08:50;3.60;;;2.70;;
67564;SDS011;54393;53.556;49.216;2023-05-29T08:11:18;4.50;;;2.83;;
67564;SDS011;54393;53.556;49.216;2023-05-29T08:13:45;3.95;;;2.83;;
67564;SDS011;54393;53.556;49.216;2023-05-29T08:16:12;3.17;;;2.80;;
67564;SDS011;54393;53.556;49.216;2023-05-29T08:18:41;4.30;;;2.67;;
67564;SDS011;54393;53.556;49.216;2023-05-29T08:21:07;2.70;;;2.50;;
67564;SDS011;54393;53.556;49.216;2023-05-29T08:23:37;2.70;;;2.50;;
67564;SDS011;54393;53.556;49.216;2023-05-29T08:26:04;4.03;;;2.65;;
67564;SDS011;54393;53.556;49.216;2023-05-29T08:28:30;3.25;;;2.90;;
67564;SDS011;54393;53.556;49.216;2023-05-29T08:30:57;3.40;;;2.90;;
67564;SDS011;54393;53.556;49.216;2023-05-29T08:33:23;3.22;;;2.70;;
67564;SDS011;54393;53.556;49.216;2023-05-29T08:35:50;3.35;;;2.70;;
67564;SDS011;54393;53.556;49.216;2023-05-29T08:38:16;4.03;;;3.03;;
67564;SDS011;54393;53.556;49.216;2023-05-29T08:40:43;3.37;;;3.08;;
67564;SDS011;54393;53.556;49.216;2023-05-29T08:45:52;3.72;;;3.20;;
67564;SDS011;54393;53.556;49.216;2023-05-29T08:48:22;3.78;;;3.35;;
67564;SDS011;54393;53.556;49.216;2023-05-29T08:50:55;3.05;;;2.70;;
67564;SDS011;54393;53.556;49.216;2023-05-29T08:53:22;3.10;;;2.70;;
67564;SDS011;54393;53.556;49.216;2023-05-29T08:55:50;3.53;;;2.53;;
67564;SDS011;54393;53.556;49.216;2023-05-29T08:58:21;4.10;;;3.30;;
67564;SDS011;54393;53.556;49.216;2023-05-29T09:00:48;4.50;;;3.00;;
67564;SDS011;54393;53.556;49.216;2023-05-29T09:03:16;3.22;;;2.92;;
67564;SDS011;54393;53.556;49.216;2023-05-29T09:05:43;5.00;;;2.62;;
67564;SDS011;54393;53.556;49.216;2023-05-29T09:08:10;2.92;;;2.72;;
67564;SDS011;54393;53.556;49.216;2023-05-29T09:10:43;3.10;;;2.80;;
67564;SDS011;54393;53.556;49.216;2023-05-29T09:13:11;2.70;;;2.50;;
67564;SDS011;54393;53.556;49.216;2023-05-29T09:15:39;4.62;;;2.85;;
67564;SDS011;54393;53.556;49.216;2023-05-29T09:18:08;2.87;;;2.67;;
67564;SDS011;54393;53.556;49.216;2023-05-29T09:20:35;4.90;;;3.30;;
67564;SDS011;54393;53.556;49.216;2023-05-29T09:23:03;3.10;;;2.90;;
67564;SDS011;54393;53.556;49.216;2023-05-29T09:25:34;4.15;;;3.20;;
67564;SDS011;54393;53.556;49.216;2023-05-29T09:28:06;3.40;;;3.20;;
67564;SDS011;54393;53.556;49.216;2023-05-29T09:30:40;2.95;;;2.75;;
67564;SDS011;54393;53.556;49.216;2023-05-29T09:33:11;5.20;;;3.00;;
67564;SDS011;54393;53.556;49.216;2023-05-29T09:35:39;3.67;;;3.25;;
67564;SDS011;54393;53.556;49.216;2023-05-29T09:38:07;3.72;;;3.22;;
67564;SDS011;54393;53.556;49.216;2023-05-29T09:40:36;7.25;;;3.33;;
67564;SDS011;54393;53.556;49.216;2023-05-29T09:43:04;4.07;;;3.12;;
67564;SDS011;54393;53.556;49.216;2023-05-29T09:45:32;3.70;;;3.40;;
67564;SDS011;54393;53.556;49.216;2023-05-29T09:48:02;3.90;;;3.10;;
67564;SDS011;54393;53.556;49.216;2023-05-29T09:50:28;3.85;;;3.45;;
67564;SDS011;54393;53.556;49.216;2023-05-29T09:52:58;3.78;;;3.17;;
67564;SDS011;54393;53.556;49.216;2023-05-29T09:55:30;4.95;;;3.65;;
67564;SDS011;54393;53.556;49.216;2023-05-29T09:57:58;3.85;;;3.53;;
67564;SDS011;54393;53.556;49.216;2023-05-29T10:00:25;4.03;;;3.42;;
67564;SDS011;54393;53.556;49.216;2023-05-29T10:02:51;3.90;;;3.50;;
67564;SDS011;54393;53.556;49.216;2023-05-29T10:05:18;5.28;;;3.62;;
67564;SDS011;54393;53.556;49.216;2023-05-29T10:07:46;5.95;;;3.90;;
67564;SDS011;54393;53.556;49.216;2023-05-29T10:10:17;4.03;;;3.10;;
67564;SDS011;54393;53.556;49.216;2023-05-29T10:12:44;3.50;;;3.20;;
67564;SDS011;54393;53.556;49.216;2023-05-29T10:15:14;3.40;;;3.10;;
67564;SDS011;54393;53.556;49.216;2023-05-29T10:17:49;3.20;;;2.90;;
67564;SDS011;54393;53.556;49.216;2023-05-29T10:20:22;3.78;;;3.08;;
67564;SDS011;54393;53.556;49.216;2023-05-29T10:22:50;3.78;;;3.30;;
67564;SDS011;54393;53.556;49.216;2023-05-29T10:25:18;4.25;;;3.55;;
67564;SDS011;54393;53.556;49.216;2023-05-29T10:27:46;3.65;;;3.05;;
67564;SDS011;54393;53.556;49.216;2023-05-29T10:32:56;3.45;;;3.00;;
67564;SDS011;54393;53.556;49.216;2023-05-29T10:38:11;4.07;;;3.30;;
67564;SDS011;54393;53.556;49.216;2023-05-29T10:40:43;3.20;;;3.00;;
67564;SDS011;54393;53.556;49.216;2023-05-29T10:46:02;5.22;;;3.50;;
67564;SDS011;54393;53.556;49.216;2023-05-29T10:51:01;5.60;;;3.05;;
67564;SDS011;54393;53.556;49.216;2023-05-29T10:53:30;5.20;;;3.22;;
67564;SDS011;54393;53.556;49.216;2023-05-29T10:56:00;4.90;;;3.47;;
67564;SDS011;54393;53.556;49.216;2023-05-29T10:58:28;3.72;;;3.37;;
67564;SDS011;54393;53.556;49.216;2023-05-29T11:00:56;3.45;;;3.15;;
67564;SDS011;54393;53.556;49.216;2023-05-29T11:03:24;4.25;;;3.12;;
67564;SDS011;54393;53.556;49.216;2023-05-29T11:08:42;3.70;;;3.40;;
67564;SDS011;54393;53.556;49.216;2023-05-29T11:11:13;4.55;;;3.22;;
67564;SDS011;54393;53.556;49.216;2023-05-29T11:13:40;3.05;;;2.80;;
67564;SDS011;54393;53.556;49.216;2023-05-29T11:16:14;3.28;;;3.03;;
67564;SDS011;54393;53.556;49.216;2023-05-29T11:18:50;3.20;;;2.92;;
67564;SDS011;54393;53.556;49.216;2023-05-29T11:24:21;3.30;;;2.97;;
67564;SDS011;54393;53.556;49.216;2023-05-29T11:26:50;3.70;;;3.30;;
67564;SDS011;54393;53.556;49.216;2023-05-29T11:29:21;5.87;;;3.65;;
67564;SDS011;54393;53.556;49.216;2023-05-29T11:31:48;5.68;;;3.12;;
67564;SDS011;54393;53.556;49.216;2023-05-29T11:34:22;3.90;;;3.47;;
67564;SDS011;54393;53.556;49.216;2023-05-29T11:36:51;4.15;;;3.33;;
67564;SDS011;54393;53.556;49.216;2023-05-29T11:39:17;4.35;;;3.50;;
67564;SDS011;54393;53.556;49.216;2023-05-29T11:41:50;3.50;;;3.20;;
67564;SDS011;54393;53.556;49.216;2023-05-29T11:44:18;4.43;;;2.95;;
67564;SDS011;54393;53.556;49.216;2023-05-29T11:46:45;3.45;;;3.15;;
67564;SDS011;54393;53.556;49.216;2023-05-29T11:49:11;3.72;;;3.42;;
67564;SDS011;54393;53.556;49.216;2023-05-29T11:51:41;3.87;;;3.00;;
67564;SDS011;54393;53.556;49.216;2023-05-29T11:54:08;4.93;;;3.20;;
67564;SDS011;54393;53.556;49.216;2023-05-29T11:56:36;4.47;;;3.58;;
67564;SDS011;54393;53.556;49.216;2023-05-29T11:59:10;4.35;;;3.30;;
67564;SDS011;54393;53.556;49.216;2023-05-29T12:01:37;3.22;;;2.92;;
67564;SDS011;54393;53.556;49.216;2023-05-29T12:04:13;3.50;;;3.20;;
67564;SDS011;54393;53.556;49.216;2023-05-29T12:06:41;3.80;;;3.05;;
67564;SDS011;54393;53.556;49.216;2023-05-29T12:09:07;3.33;;;3.05;;
67564;SDS011;54393;53.556;49.216;2023-05-29T12:11:34;4.32;;;3.22;;
67564;SDS011;54393;53.556;49.216;2023-05-29T12:14:01;4.12;;;2.90;;
67564;SDS011;54393;53.556;49.216;2023-05-29T12:16:28;5.22;;;3.20;;
67564;SDS011;54393;53.556;49.216;2023-05-29T12:18:57;5.28;;;3.45;;
67564;SDS011;54393;53.556;49.216;2023-05-29T12:21:24;6.05;;;3.37;;
67564;SDS011;54393;53.556;49.216;2023-05-29T12:23:54;3.45;;;3.15;;
67564;SDS011;54393;53.556;49.216;2023-05-29T12:26:21;3.65;;;3.00;;
67564;SDS011;54393;53.556;49.216;2023-05-29T12:28:50;3.50;;;3.10;;
67564;SDS011;54393;53.556;49.216;2023-05-29T12:31:29;5.07;;;3.00;;
67564;SDS011;54393;53.556;49.216;2023-05-29T12:34:07;3.22;;;3.03;;
67564;SDS011;54393;53.556;49.216;2023-05-29T12:36:34;3.15;;;2.60;;
67564;SDS011;54393;53.556;49.216;2023-05-29T12:39:04;3.33;;;2.75;;
67564;SDS011;54393;53.556;49.216;2023-05-29T12:41:33;4.10;;;2.80;;
67564;SDS011;54393;53.556;49.216;2023-05-29T12:44:02;3.47;;;2.97;;
67564;SDS011;54393;53.556;49.216;2023-05-29T12:49:13;3.37;;;3.08;;
67564;SDS011;54393;53.556;49.216;2023-05-29T12:51:44;5.05;;;3.03;;
67564;SDS011;54393;53.556;49.216;2023-05-29T12:54:14;3.00;;;2.80;;
67564;SDS011;54393;53.556;49.216;2023-05-29T12:56:42;3.33;;;3.05;;
67564;SDS011;54393;53.556;49.216;2023-05-29T12:59:10;3.95;;;3.28;;
67564;SDS011;54393;53.556;49.216;2023-05-29T13:01:37;3.87;;;2.95;;
67564;SDS011;54393;53.556;49.216;2023-05-29T13:04:06;2.75;;;2.55;;
67564;SDS011;54393;53.556;49.216;2023-05-29T13:06:37;4.10;;;3.42;;
67564;SDS011;54393;53.556;49.216;2023-05-29T13:09:04;3.17;;;2.60;;
67564;SDS011;54393;53.556;49.216;2023-05-29T13:11:32;4.18;;;3.12;;
67564;SDS011;54393;53.556;49.216;2023-05-29T13:13:59;6.03;;;3.25;;
67564;SDS011;54393;53.556;49.216;2023-05-29T13:16:25;4.80;;;2.83;;
67564;SDS011;54393;53.556;49.216;2023-05-29T13:18:51;2.70;;;2.50;;
67564;SDS011;54393;53.556;49.216;2023-05-29T13:21:18;2.80;;;2.60;;
67564;SDS011;54393;53.556;49.216;2023-05-29T13:23:44;11.43;;;3.40;;
67564;SDS011;54393;53.556;49.216;2023-05-29T13:26:11;7.53;;;3.03;;
67564;SDS011;54393;53.556;49.216;2023-05-29T13:28:37;6.75;;;3.00;;
67564;SDS011;54393;53.556;49.216;2023-05-29T13:31:04;5.87;;;2.80;;
67564;SDS011;54393;53.556;49.216;2023-05-29T13:33:30;7.25;;;2.55;;
67564;SDS011;54393;53.556;49.216;2023-05-29T13:35:57;3.28;;;2.97;;
67564;SDS011;54393;53.556;49.216;2023-05-29T13:38:23;4.12;;;2.72;;
67564;SDS011;54393;53.556;49.216;2023-05-29T13:40:50;2.53;;;2.20;;
67564;SDS011;54393;53.556;49.216;2023-05-29T13:43:16;6.90;;;2.30;;
67564;SDS011;54393;53.556;49.216;2023-05-29T13:45:42;3.53;;;2.40;;
67564;SDS011;54393;53.556;49.216;2023-05-29T13:48:09;4.68;;;3.00;;
67564;SDS011;54393;53.556;49.216;2023-05-29T13:50:36;4.25;;;2.53;;
67564;SDS011;54393;53.556;49.216;2023-05-29T13:53:03;3.80;;;2.42;;
67564;SDS011;54393;53.556;49.216;2023-05-29T13:55:29;6.40;;;2.45;;
67564;SDS011;54393;53.556;49.216;2023-05-29T13:57:56;3.90;;;2.70;;
67564;SDS011;54393;53.556;49.216;2023-05-29T14:00:23;2.40;;;2.20;;
67564;SDS011;54393;53.556;49.216;2023-05-29T14:02:49;2.75;;;2.45;;
67564;SDS011;54393;53.556;49.216;2023-05-29T14:05:16;2.12;;;1.90;;
67564;SDS011;54393;53.556;49.216;2023-05-29T14:07:43;3.53;;;2.72;;
67564;SDS011;54393;53.556;49.216;2023-05-29T14:10:10;2.87;;;2.42;;
67564;SDS011;54393;53.556;49.216;2023-05-29T14:12:37;3.10;;;2.53;;
67564;SDS011;54393;53.556;49.216;2023-05-29T14:15:03;3.50;;;2.30;;
67564;SDS011;54393;53.556;49.216;2023-05-29T14:17:31;3.50;;;2.25;;
67564;SDS011;54393;53.556;49.216;2023-05-29T14:19:57;3.05;;;2.33;;
67564;SDS011;54393;53.556;49.216;2023-05-29T14:22:25;4.00;;;2.40;;
67564;SDS011;54393;53.556;49.216;2023-05-29T14:24:52;2.47;;;2.28;;
67564;SDS011;54393;53.556;49.216;2023-05-29T14:27:19;2.50;;;2.00;;
67564;SDS011;54393;53.556;49.216;2023-05-29T14:29:45;4.25;;;2.60;;
67564;SDS011;54393;53.556;49.216;2023-05-29T14:32:12;2.15;;;1.95;;
67564;SDS011;54393;53.556;49.216;2023-05-29T14:34:38;2.50;;;2.30;;
67564;SDS011;54393;53.556;49.216;2023-05-29T14:37:05;1.95;;;1.70;;
67564;SDS011;54393;53.556;49.216;2023-05-29T14:39:31;2.10;;;2.00;;
67564;SDS011;54393;53.556;49.216;2023-05-29T14:41:58;3.83;;;2.58;;
67564;SDS011;54393;53.556;49.216;2023-05-29T14:44:24;2.00;;;1.80;;
67564;SDS011;54393;53.556;49.216;2023-05-29T14:46:51;2.67;;;2.35;;
67564;SDS011;54393;53.556;49.216;2023-05-29T14:49:17;2.37;;;2.17;;
67564;SDS011;54393;53.556;49.216;2023-05-29T14:51:44;5.70;;;2.40;;
67564;SDS011;54393;53.556;49.216;2023-05-29T14:54:11;3.58;;;2.17;;
67564;SDS011;54393;53.556;49.216;2023-05-29T14:56:37;2.50;;;2.30;;
67564;SDS011;54393;53.556;49.216;2023-05-29T14:59:04;3.17;;;2.20;;
67564;SDS011;54393;53.556;49.216;2023-05-29T15:01:30;2.10;;;1.80;;
67564;SDS011;54393;53.556;49.216;2023-05-29T15:03:57;2.10;;;1.77;;
67564;SDS011;54393;53.556;49.216;2023-05-29T15:06:23;2.22;;;2.00;;